sensor_id;sensor_type;location;lat;lon;timestamp;pressure;altitude;pressure_sealevel;temperature;humidity
61109;BME280;46995;55.740;37.402;2023-12-07T00:00:32;101366.69;;;-6.25;80.55
61109;BME280;46995;55.740;37.402;2023-12-07T00:02:58;101368.38;;;-6.25;80.61
61109;BME280;46995;55.740;37.402;2023-12-07T00:05:27;101377.81;;;-6.26;80.56
61109;BME280;46995;55.740;37.402;2023-12-07T00:07:56;101365.00;;;-6.23;80.50
61109;BME280;46995;55.740;37.402;2023-12-07T00:10:24;101364.97;;;-6.24;80.97
61109;BME280;46995;55.740;37.402;2023-12-07T00:12:50;101373.50;;;-6.27;80.33
61109;BME280;46995;55.740;37.402;2023-12-07T00:15:15;101375.22;;;-6.26;80.55
61109;BME280;46995;55.740;37.402;2023-12-07T00:17:41;101354.53;;;-6.38;80.88
61109;BME280;46995;55.740;37.402;2023-12-07T00:24:21;101374.31;;;-6.31;80.78
61109;BME280;46995;55.740;37.402;2023-12-07T01:11:31;101385.16;;;-6.53;80.44
61109;BME280;46995;55.740;37.402;2023-12-07T01:14:07;101395.44;;;-6.53;80.27
61109;BME280;46995;55.740;37.402;2023-12-07T01:16:56;101385.16;;;-6.56;80.05
61109;BME280;46995;55.740;37.402;2023-12-07T01:19:52;101397.16;;;-6.55;80.55
61109;BME280;46995;55.740;37.402;2023-12-07T01:22:50;101393.78;;;-6.51;80.49
61109;BME280;46995;55.740;37.402;2023-12-07T01:25:34;101392.91;;;-6.52;79.92
61109;BME280;46995;55.740;37.402;2023-12-07T01:28:17;101395.50;;;-6.50;79.77
61109;BME280;46995;55.740;37.402;2023-12-07T01:31:13;101412.59;;;-6.52;79.98
61109;BME280;46995;55.740;37.402;2023-12-07T01:37:00;101399.72;;;-6.55;79.64
61109;BME280;46995;55.740;37.402;2023-12-07T01:39:28;101413.47;;;-6.52;80.22
61109;BME280;46995;55.740;37.402;2023-12-07T01:41:59;101420.25;;;-6.57;80.26
61109;BME280;46995;55.740;37.402;2023-12-07T01:44:50;101419.34;;;-6.60;79.61
61109;BME280;46995;55.740;37.402;2023-12-07T02:03:26;101428.66;;;-6.68;80.27
61109;BME280;46995;55.740;37.402;2023-12-07T02:22:43;101448.38;;;-6.67;79.90
61109;BME280;46995;55.740;37.402;2023-12-07T02:25:20;101443.25;;;-6.66;79.99
61109;BME280;46995;55.740;37.402;2023-12-07T02:27:56;101446.69;;;-6.65;79.87
61109;BME280;46995;55.740;37.402;2023-12-07T02:30:25;101448.38;;;-6.64;79.82
61109;BME280;46995;55.740;37.402;2023-12-07T02:33:14;101450.09;;;-6.66;79.66
61109;BME280;46995;55.740;37.402;2023-12-07T02:35:41;101444.91;;;-6.69;79.88
61109;BME280;46995;55.740;37.402;2023-12-07T02:38:09;101455.03;;;-6.78;80.19
61109;BME280;46995;55.740;37.402;2023-12-07T02:40:56;101454.94;;;-6.85;79.87
61109;BME280;46995;55.740;37.402;2023-12-07T02:44:04;101463.44;;;-6.89;79.94
61109;BME280;46995;55.740;37.402;2023-12-07T02:49:26;101464.28;;;-6.90;80.15
61109;BME280;46995;55.740;37.402;2023-12-07T02:51:51;101460.84;;;-6.90;80.03
61109;BME280;46995;55.740;37.402;2023-12-07T02:54:19;101455.78;;;-6.87;79.80
61109;BME280;46995;55.740;37.402;2023-12-07T02:56:47;101455.81;;;-6.86;79.64
61109;BME280;46995;55.740;37.402;2023-12-07T02:59:13;101461.78;;;-6.87;79.99
61109;BME280;46995;55.740;37.402;2023-12-07T03:01:39;101462.66;;;-6.85;79.73
61109;BME280;46995;55.740;37.402;2023-12-07T03:04:04;101466.91;;;-6.85;79.47
61109;BME280;46995;55.740;37.402;2023-12-07T03:06:30;101469.41;;;-6.91;79.65
61109;BME280;46995;55.740;37.402;2023-12-07T03:08:56;101473.69;;;-6.92;79.42
61109;BME280;46995;55.740;37.402;2023-12-07T03:11:22;101475.38;;;-6.92;79.65
61109;BME280;46995;55.740;37.402;2023-12-07T03:13:48;101483.03;;;-6.95;79.33
61109;BME280;46995;55.740;37.402;2023-12-07T03:16:14;101475.25;;;-7.00;79.92
61109;BME280;46995;55.740;37.402;2023-12-07T03:18:40;101485.53;;;-7.00;79.74
61109;BME280;46995;55.740;37.402;2023-12-07T03:21:06;101485.59;;;-6.97;79.64
61109;BME280;46995;55.740;37.402;2023-12-07T03:23:37;101493.22;;;-7.00;79.36
61109;BME280;46995;55.740;37.402;2023-12-07T03:26:15;101494.88;;;-7.03;79.25
61109;BME280;46995;55.740;37.402;2023-12-07T04:20:14;101523.84;;;-7.10;79.22
61109;BME280;46995;55.740;37.402;2023-12-07T04:22:52;101520.44;;;-7.09;78.89
61109;BME280;46995;55.740;37.402;2023-12-07T04:25:18;101515.34;;;-7.08;78.88
61109;BME280;46995;55.740;37.402;2023-12-07T04:27:48;101526.34;;;-7.15;78.77
61109;BME280;46995;55.740;37.402;2023-12-07T04:30:13;101525.34;;;-7.23;78.76
61109;BME280;46995;55.740;37.402;2023-12-07T04:32:39;101531.16;;;-7.33;78.76
61109;BME280;46995;55.740;37.402;2023-12-07T04:35:05;101532.78;;;-7.38;79.10
61109;BME280;46995;55.740;37.402;2023-12-07T04:37:32;101531.09;;;-7.36;78.60
61109;BME280;46995;55.740;37.402;2023-12-07T04:39:57;101527.66;;;-7.38;79.04
61109;BME280;46995;55.740;37.402;2023-12-07T04:42:28;101526.78;;;-7.39;78.95
61109;BME280;46995;55.740;37.402;2023-12-07T04:44:54;101526.78;;;-7.39;78.83
61109;BME280;46995;55.740;37.402;2023-12-07T04:47:19;101543.00;;;-7.40;79.25
61109;BME280;46995;55.740;37.402;2023-12-07T04:49:45;101539.53;;;-7.42;78.84
61109;BME280;46995;55.740;37.402;2023-12-07T04:52:10;101536.09;;;-7.44;78.77
61109;BME280;46995;55.740;37.402;2023-12-07T04:54:36;101542.81;;;-7.50;78.60
61109;BME280;46995;55.740;37.402;2023-12-07T04:57:02;101542.72;;;-7.53;78.95
61109;BME280;46995;55.740;37.402;2023-12-07T04:59:28;101538.41;;;-7.56;79.01
61109;BME280;46995;55.740;37.402;2023-12-07T05:01:53;101542.69;;;-7.56;79.20
61109;BME280;46995;55.740;37.402;2023-12-07T05:04:19;101546.94;;;-7.57;79.25
61109;BME280;46995;55.740;37.402;2023-12-07T05:20:20;101568.34;;;-7.56;78.61
61109;BME280;46995;55.740;37.402;2023-12-07T05:23:12;101570.06;;;-7.55;78.73
61109;BME280;46995;55.740;37.402;2023-12-07T05:25:53;101573.47;;;-7.56;78.36
61109;BME280;46995;55.740;37.402;2023-12-07T05:28:20;101570.00;;;-7.58;78.48
61109;BME280;46995;55.740;37.402;2023-12-07T05:30:46;101577.47;;;-7.69;78.17
61109;BME280;46995;55.740;37.402;2023-12-07T05:33:38;101581.75;;;-7.69;78.60
61109;BME280;46995;55.740;37.402;2023-12-07T05:36:06;101579.28;;;-7.65;78.56
61109;BME280;46995;55.740;37.402;2023-12-07T05:38:32;101587.91;;;-7.61;78.31
61109;BME280;46995;55.740;37.402;2023-12-07T05:40:58;101582.75;;;-7.61;78.45
61109;BME280;46995;55.740;37.402;2023-12-07T05:43:27;101581.91;;;-7.62;78.90
61109;BME280;46995;55.740;37.402;2023-12-07T05:45:52;101587.09;;;-7.59;78.94
61109;BME280;46995;55.740;37.402;2023-12-07T05:48:21;101592.19;;;-7.60;78.45
61109;BME280;46995;55.740;37.402;2023-12-07T05:50:58;101598.81;;;-7.72;78.07
61109;BME280;46995;55.740;37.402;2023-12-07T05:53:24;101598.75;;;-7.75;78.23
61109;BME280;46995;55.740;37.402;2023-12-07T05:55:50;101600.53;;;-7.71;78.17
61109;BME280;46995;55.740;37.402;2023-12-07T05:58:16;101604.06;;;-7.65;78.32
61109;BME280;46995;55.740;37.402;2023-12-07T06:00:50;101602.47;;;-7.60;78.15
61109;BME280;46995;55.740;37.402;2023-12-07T06:03:19;101600.78;;;-7.58;78.23
61109;BME280;46995;55.740;37.402;2023-12-07T06:05:45;101605.16;;;-7.54;78.24
61109;BME280;46995;55.740;37.402;2023-12-07T06:08:32;101604.38;;;-7.50;78.40
61109;BME280;46995;55.740;37.402;2023-12-07T06:14:02;101607.75;;;-7.51;78.12
61109;BME280;46995;55.740;37.402;2023-12-07T06:16:31;101608.69;;;-7.49;78.46
61109;BME280;46995;55.740;37.402;2023-12-07T06:19:00;101616.41;;;-7.46;78.01
61109;BME280;46995;55.740;37.402;2023-12-07T06:21:37;101609.63;;;-7.43;78.30
61109;BME280;46995;55.740;37.402;2023-12-07T06:24:03;101608.03;;;-7.39;78.18
61109;BME280;46995;55.740;37.402;2023-12-07T06:26:42;101609.69;;;-7.41;77.86
61109;BME280;46995;55.740;37.402;2023-12-07T06:29:11;101614.03;;;-7.39;78.23
61109;BME280;46995;55.740;37.402;2023-12-07T06:31:42;101619.03;;;-7.45;77.99
61109;BME280;46995;55.740;37.402;2023-12-07T06:38:02;101621.72;;;-7.37;78.61
61109;BME280;46995;55.740;37.402;2023-12-07T06:49:07;101607.31;;;-7.31;78.01
61109;BME280;46995;55.740;37.402;2023-12-07T06:51:33;101609.06;;;-7.30;78.06
61109;BME280;46995;55.740;37.402;2023-12-07T06:53:59;101609.94;;;-7.29;78.08
61109;BME280;46995;55.740;37.402;2023-12-07T06:56:25;101615.06;;;-7.29;78.49
61109;BME280;46995;55.740;37.402;2023-12-07T06:58:51;101613.31;;;-7.30;77.86
61109;BME280;46995;55.740;37.402;2023-12-07T07:01:20;101613.06;;;-7.42;77.22
61109;BME280;46995;55.740;37.402;2023-12-07T07:03:48;101613.03;;;-7.45;77.94
61109;BME280;46995;55.740;37.402;2023-12-07T07:06:16;101612.94;;;-7.50;78.01
61109;BME280;46995;55.740;37.402;2023-12-07T07:09:19;101624.94;;;-7.47;78.48
61109;BME280;46995;55.740;37.402;2023-12-07T07:11:54;101616.56;;;-7.40;78.49
61109;BME280;46995;55.740;37.402;2023-12-07T07:14:20;101616.59;;;-7.37;78.16
61109;BME280;46995;55.740;37.402;2023-12-07T07:16:53;101620.03;;;-7.38;78.31
61109;BME280;46995;55.740;37.402;2023-12-07T07:19:19;101626.69;;;-7.46;78.21
61109;BME280;46995;55.740;37.402;2023-12-07T07:22:03;101617.97;;;-7.54;78.36
61109;BME280;46995;55.740;37.402;2023-12-07T07:29:25;101627.78;;;-7.76;78.32
61109;BME280;46995;55.740;37.402;2023-12-07T07:34:18;101631.09;;;-7.80;78.63
61109;BME280;46995;55.740;37.402;2023-12-07T07:37:01;101640.41;;;-7.83;78.26
61109;BME280;46995;55.740;37.402;2023-12-07T07:39:36;101637.00;;;-7.84;78.62
61109;BME280;46995;55.740;37.402;2023-12-07T07:42:03;101634.50;;;-7.81;78.32
61109;BME280;46995;55.740;37.402;2023-12-07T07:45:10;101639.84;;;-7.72;78.08
61109;BME280;46995;55.740;37.402;2023-12-07T07:48:23;101637.31;;;-7.70;78.09
61109;BME280;46995;55.740;37.402;2023-12-07T07:53:55;101641.44;;;-7.77;78.22
61109;BME280;46995;55.740;37.402;2023-12-07T07:56:22;101636.31;;;-7.77;78.00
61109;BME280;46995;55.740;37.402;2023-12-07T07:58:47;101647.38;;;-7.78;78.05
61109;BME280;46995;55.740;37.402;2023-12-07T08:01:28;101643.09;;;-7.79;77.98
61109;BME280;46995;55.740;37.402;2023-12-07T08:04:01;101642.03;;;-7.88;77.77
61109;BME280;46995;55.740;37.402;2023-12-07T08:09:35;101649.63;;;-7.93;78.15
61109;BME280;46995;55.740;37.402;2023-12-07T08:12:01;101649.66;;;-7.91;78.41
61109;BME280;46995;55.740;37.402;2023-12-07T08:14:27;101649.66;;;-7.90;78.19
61109;BME280;46995;55.740;37.402;2023-12-07T08:17:05;101657.50;;;-7.85;77.87
61109;BME280;46995;55.740;37.402;2023-12-07T08:19:31;101655.66;;;-7.89;77.66
61109;BME280;46995;55.740;37.402;2023-12-07T08:21:57;101653.09;;;-7.91;77.56
61109;BME280;46995;55.740;37.402;2023-12-07T08:24:23;101659.94;;;-7.90;77.46
61109;BME280;46995;55.740;37.402;2023-12-07T08:29:39;101652.94;;;-7.97;77.86
61109;BME280;46995;55.740;37.402;2023-12-07T08:32:08;101654.59;;;-7.99;76.97
61109;BME280;46995;55.740;37.402;2023-12-07T08:34:48;101652.91;;;-7.98;77.61
61109;BME280;46995;55.740;37.402;2023-12-07T08:37:16;101649.56;;;-7.96;77.45
61109;BME280;46995;55.740;37.402;2023-12-07T08:39:42;101646.09;;;-7.98;77.40
61109;BME280;46995;55.740;37.402;2023-12-07T08:42:11;101645.28;;;-7.95;76.83
61109;BME280;46995;55.740;37.402;2023-12-07T08:44:37;101645.34;;;-7.92;77.46
61109;BME280;46995;55.740;37.402;2023-12-07T08:47:04;101641.91;;;-7.93;76.89
61109;BME280;46995;55.740;37.402;2023-12-07T08:49:30;101636.84;;;-7.91;76.96
61109;BME280;46995;55.740;37.402;2023-12-07T08:51:56;101639.56;;;-7.84;77.28
61109;BME280;46995;55.740;37.402;2023-12-07T08:54:25;101637.94;;;-7.80;76.73
61109;BME280;46995;55.740;37.402;2023-12-07T08:56:51;101635.34;;;-7.82;77.21
61109;BME280;46995;55.740;37.402;2023-12-07T08:59:17;101644.69;;;-7.84;76.93
61109;BME280;46995;55.740;37.402;2023-12-07T09:01:42;101643.81;;;-7.84;77.17
61109;BME280;46995;55.740;37.402;2023-12-07T09:04:08;101641.25;;;-7.86;77.38
61109;BME280;46995;55.740;37.402;2023-12-07T09:09:29;101639.34;;;-7.93;77.05
61109;BME280;46995;55.740;37.402;2023-12-07T09:12:01;101634.22;;;-7.93;76.97
61109;BME280;46995;55.740;37.402;2023-12-07T09:14:26;101635.06;;;-7.94;76.78
61109;BME280;46995;55.740;37.402;2023-12-07T09:16:52;101630.84;;;-7.92;77.03
61109;BME280;46995;55.740;37.402;2023-12-07T09:19:19;101625.72;;;-7.92;77.08
61109;BME280;46995;55.740;37.402;2023-12-07T09:21:45;101632.59;;;-7.91;77.07
61109;BME280;46995;55.740;37.402;2023-12-07T09:24:11;101635.06;;;-7.94;77.04
61109;BME280;46995;55.740;37.402;2023-12-07T09:26:37;101630.91;;;-7.89;76.87
61109;BME280;46995;55.740;37.402;2023-12-07T09:29:05;101630.13;;;-7.85;76.93
61109;BME280;46995;55.740;37.402;2023-12-07T09:31:31;101628.41;;;-7.86;76.51
61109;BME280;46995;55.740;37.402;2023-12-07T09:33:57;101629.25;;;-7.87;76.58
61109;BME280;46995;55.740;37.402;2023-12-07T09:36:23;101635.88;;;-7.95;75.80
61109;BME280;46995;55.740;37.402;2023-12-07T09:38:53;101634.97;;;-7.98;76.12
61109;BME280;46995;55.740;37.402;2023-12-07T09:41:19;101629.94;;;-7.94;75.71
61109;BME280;46995;55.740;37.402;2023-12-07T09:43:54;101634.28;;;-7.90;75.75
61109;BME280;46995;55.740;37.402;2023-12-07T09:46:21;101628.47;;;-7.83;75.70
61109;BME280;46995;55.740;37.402;2023-12-07T09:48:51;101626.19;;;-7.71;75.23
61109;BME280;46995;55.740;37.402;2023-12-07T09:51:20;101627.97;;;-7.66;74.93
61109;BME280;46995;55.740;37.402;2023-12-07T09:54:01;101629.91;;;-7.56;75.09
61109;BME280;46995;55.740;37.402;2023-12-07T09:56:28;101628.38;;;-7.47;75.40
61109;BME280;46995;55.740;37.402;2023-12-07T09:58:53;101632.06;;;-7.34;75.25
61109;BME280;46995;55.740;37.402;2023-12-07T10:01:19;101629.63;;;-7.28;75.16
61109;BME280;46995;55.740;37.402;2023-12-07T10:03:45;101626.25;;;-7.25;75.30
61109;BME280;46995;55.740;37.402;2023-12-07T10:06:12;101630.63;;;-7.20;75.12
61109;BME280;46995;55.740;37.402;2023-12-07T10:08:37;101628.94;;;-7.19;74.84
61109;BME280;46995;55.740;37.402;2023-12-07T10:11:04;101625.44;;;-7.23;74.62
61109;BME280;46995;55.740;37.402;2023-12-07T10:13:33;101631.41;;;-7.24;75.03
61109;BME280;46995;55.740;37.402;2023-12-07T10:16:09;101632.94;;;-7.32;74.64
61109;BME280;46995;55.740;37.402;2023-12-07T10:18:35;101633.59;;;-7.42;74.90
61109;BME280;46995;55.740;37.402;2023-12-07T10:21:06;101640.28;;;-7.50;74.60
61109;BME280;46995;55.740;37.402;2023-12-07T10:23:46;101645.28;;;-7.56;74.65
61109;BME280;46995;55.740;37.402;2023-12-07T10:26:13;101640.09;;;-7.59;74.83
61109;BME280;46995;55.740;37.402;2023-12-07T10:28:38;101630.59;;;-7.63;74.98
61109;BME280;46995;55.740;37.402;2023-12-07T10:31:07;101645.84;;;-7.71;75.46
61109;BME280;46995;55.740;37.402;2023-12-07T10:33:53;101631.09;;;-7.80;75.08
61109;BME280;46995;55.740;37.402;2023-12-07T10:36:19;101637.75;;;-7.88;75.39
61109;BME280;46995;55.740;37.402;2023-12-07T10:38:45;101631.78;;;-7.88;75.53
61109;BME280;46995;55.740;37.402;2023-12-07T10:41:15;101633.44;;;-7.90;75.63
61109;BME280;46995;55.740;37.402;2023-12-07T10:43:44;101637.75;;;-7.88;75.76
61109;BME280;46995;55.740;37.402;2023-12-07T10:46:14;101640.47;;;-7.82;75.68
61109;BME280;46995;55.740;37.402;2023-12-07T10:48:57;101636.31;;;-7.77;76.10
61109;BME280;46995;55.740;37.402;2023-12-07T10:53:53;101636.75;;;-7.55;75.51
61109;BME280;46995;55.740;37.402;2023-12-07T10:56:43;101641.16;;;-7.50;75.59
61109;BME280;46995;55.740;37.402;2023-12-07T10:59:09;101649.81;;;-7.45;75.91
61109;BME280;46995;55.740;37.402;2023-12-07T11:01:43;101651.72;;;-7.35;75.80
61109;BME280;46995;55.740;37.402;2023-12-07T11:04:13;101649.25;;;-7.30;76.02
61109;BME280;46995;55.740;37.402;2023-12-07T11:06:39;101651.00;;;-7.29;76.01
61109;BME280;46995;55.740;37.402;2023-12-07T11:09:07;101642.47;;;-7.28;75.98
61109;BME280;46995;55.740;37.402;2023-12-07T11:11:51;101641.50;;;-7.33;75.92
61109;BME280;46995;55.740;37.402;2023-12-07T11:14:18;101642.28;;;-7.36;76.02
61109;BME280;46995;55.740;37.402;2023-12-07T11:23:21;101648.94;;;-7.45;76.14
61109;BME280;46995;55.740;37.402;2023-12-07T11:26:10;101646.41;;;-7.44;76.64
61109;BME280;46995;55.740;37.402;2023-12-07T11:33:24;101648.81;;;-7.51;76.11
61109;BME280;46995;55.740;37.402;2023-12-07T11:38:28;101651.38;;;-7.51;76.15
61109;BME280;46995;55.740;37.402;2023-12-07T11:40:56;101654.63;;;-7.60;76.54
61109;BME280;46995;55.740;37.402;2023-12-07T11:46:09;101651.59;;;-7.80;76.43
61109;BME280;46995;55.740;37.402;2023-12-07T11:48:35;101651.59;;;-7.80;76.42
61109;BME280;46995;55.740;37.402;2023-12-07T11:51:01;101654.25;;;-7.77;76.79
61109;BME280;46995;55.740;37.402;2023-12-07T11:53:28;101655.03;;;-7.79;76.62
61109;BME280;46995;55.740;37.402;2023-12-07T11:55:57;101656.72;;;-7.80;76.65
61109;BME280;46995;55.740;37.402;2023-12-07T11:58:35;101656.69;;;-7.83;76.28
61109;BME280;46995;55.740;37.402;2023-12-07T12:01:02;101656.69;;;-7.83;76.46
61109;BME280;46995;55.740;37.402;2023-12-07T12:03:29;101651.59;;;-7.81;76.11
61109;BME280;46995;55.740;37.402;2023-12-07T12:05:55;101661.94;;;-7.77;75.93
61109;BME280;46995;55.740;37.402;2023-12-07T12:11:30;101660.28;;;-7.75;75.97
61109;BME280;46995;55.740;37.402;2023-12-07T12:14:27;101650.88;;;-7.74;75.34
61109;BME280;46995;55.740;37.402;2023-12-07T12:17:15;101652.41;;;-7.82;75.11
61109;BME280;46995;55.740;37.402;2023-12-07T12:27:35;101657.00;;;-8.06;75.54
61109;BME280;46995;55.740;37.402;2023-12-07T12:30:30;101657.63;;;-8.15;75.35
61109;BME280;46995;55.740;37.402;2023-12-07T12:34:10;101658.88;;;-8.35;75.30
61109;BME280;46995;55.740;37.402;2023-12-07T12:53:06;101674.09;;;-9.07;75.45
61109;BME280;46995;55.740;37.402;2023-12-07T12:56:10;101672.19;;;-9.14;75.40
61109;BME280;46995;55.740;37.402;2023-12-07T12:58:36;101671.13;;;-9.21;75.57
61109;BME280;46995;55.740;37.402;2023-12-07T13:08:24;101679.78;;;-9.17;75.87
61109;BME280;46995;55.740;37.402;2023-12-07T13:10:50;101673.78;;;-9.18;75.76
61109;BME280;46995;55.740;37.402;2023-12-07T13:13:19;101680.78;;;-9.12;75.96
61109;BME280;46995;55.740;37.402;2023-12-07T13:15:52;101680.94;;;-9.06;75.83
61109;BME280;46995;55.740;37.402;2023-12-07T13:18:29;101682.84;;;-8.99;75.29
61109;BME280;46995;55.740;37.402;2023-12-07T13:39:31;101681.13;;;-8.34;75.36
61109;BME280;46995;55.740;37.402;2023-12-07T14:11:47;101677.22;;;-8.19;75.23
61109;BME280;46995;55.740;37.402;2023-12-07T14:14:13;101684.13;;;-8.15;75.29
61109;BME280;46995;55.740;37.402;2023-12-07T14:16:39;101670.50;;;-8.14;75.42
61109;BME280;46995;55.740;37.402;2023-12-07T14:20:01;101683.50;;;-8.06;75.41
61109;BME280;46995;55.740;37.402;2023-12-07T14:22:41;101683.59;;;-8.01;75.46
61109;BME280;46995;55.740;37.402;2023-12-07T14:25:30;101688.00;;;-7.96;75.53
61109;BME280;46995;55.740;37.402;2023-12-07T14:28:21;101686.34;;;-7.94;75.60
61109;BME280;46995;55.740;37.402;2023-12-07T14:31:07;101694.97;;;-7.90;75.14
61109;BME280;46995;55.740;37.402;2023-12-07T14:37:39;101683.72;;;-7.97;75.18
61109;BME280;46995;55.740;37.402;2023-12-07T14:40:10;101681.72;;;-8.08;75.17
61109;BME280;46995;55.740;37.402;2023-12-07T14:45:51;101690.84;;;-8.20;75.07
61109;BME280;46995;55.740;37.402;2023-12-07T14:51:38;101691.00;;;-8.14;75.41
61109;BME280;46995;55.740;37.402;2023-12-07T14:54:14;101682.50;;;-8.11;75.42
61109;BME280;46995;55.740;37.402;2023-12-07T14:57:33;101683.25;;;-8.15;75.14
61109;BME280;46995;55.740;37.402;2023-12-07T15:00:19;101691.00;;;-8.14;75.37
61109;BME280;46995;55.740;37.402;2023-12-07T15:03:08;101695.31;;;-8.11;75.47
61109;BME280;46995;55.740;37.402;2023-12-07T15:05:34;101699.75;;;-8.04;76.02
61109;BME280;46995;55.740;37.402;2023-12-07T15:08:07;101687.88;;;-8.00;75.68
61109;BME280;46995;55.740;37.402;2023-12-07T15:10:37;101682.63;;;-8.06;75.33
61109;BME280;46995;55.740;37.402;2023-12-07T15:13:03;101686.66;;;-8.16;75.41
61109;BME280;46995;55.740;37.402;2023-12-07T15:15:30;101681.47;;;-8.19;75.71
61109;BME280;46995;55.740;37.402;2023-12-07T15:17:58;101688.22;;;-8.21;75.83
61109;BME280;46995;55.740;37.402;2023-12-07T15:20:24;101690.84;;;-8.20;75.70
61109;BME280;46995;55.740;37.402;2023-12-07T15:22:51;101693.41;;;-8.20;75.69
61109;BME280;46995;55.740;37.402;2023-12-07T15:25:17;101684.09;;;-8.16;75.80
61109;BME280;46995;55.740;37.402;2023-12-07T15:27:43;101690.84;;;-8.20;75.98
61109;BME280;46995;55.740;37.402;2023-12-07T15:30:12;101694.16;;;-8.24;76.06
61109;BME280;46995;55.740;37.402;2023-12-07T15:32:38;101688.94;;;-8.28;76.14
61109;BME280;46995;55.740;37.402;2023-12-07T15:35:04;101694.72;;;-8.37;76.21
61109;BME280;46995;55.740;37.402;2023-12-07T15:37:30;101695.56;;;-8.38;76.16
61109;BME280;46995;55.740;37.402;2023-12-07T15:43:09;101700.88;;;-8.29;76.17
61109;BME280;46995;55.740;37.402;2023-12-07T15:45:58;101703.44;;;-8.29;75.88
61109;BME280;46995;55.740;37.402;2023-12-07T15:51:58;101704.28;;;-8.30;76.22
61109;BME280;46995;55.740;37.402;2023-12-07T15:54:50;101700.00;;;-8.29;76.09
61109;BME280;46995;55.740;37.402;2023-12-07T15:57:36;101703.34;;;-8.33;75.82
61109;BME280;46995;55.740;37.402;2023-12-07T16:00:02;101701.63;;;-8.34;76.12
61109;BME280;46995;55.740;37.402;2023-12-07T16:02:51;101704.22;;;-8.33;75.69
61109;BME280;46995;55.740;37.402;2023-12-07T16:05:40;101705.00;;;-8.35;75.90
61109;BME280;46995;55.740;37.402;2023-12-07T16:08:12;101701.56;;;-8.37;76.04
61109;BME280;46995;55.740;37.402;2023-12-07T16:10:38;101702.50;;;-8.34;75.88
61109;BME280;46995;55.740;37.402;2023-12-07T16:13:03;101708.44;;;-8.35;76.00
61109;BME280;46995;55.740;37.402;2023-12-07T16:15:29;101709.91;;;-8.44;75.66
61109;BME280;46995;55.740;37.402;2023-12-07T16:17:55;101709.75;;;-8.50;75.76
61109;BME280;46995;55.740;37.402;2023-12-07T16:20:21;101712.97;;;-8.58;75.39
61109;BME280;46995;55.740;37.402;2023-12-07T16:22:57;101709.56;;;-8.57;75.32
61109;BME280;46995;55.740;37.402;2023-12-07T16:25:35;101706.19;;;-8.55;75.52
61109;BME280;46995;55.740;37.402;2023-12-07T16:28:03;101701.06;;;-8.55;75.38
61109;BME280;46995;55.740;37.402;2023-12-07T16:30:41;101715.41;;;-8.62;75.23
61109;BME280;46995;55.740;37.402;2023-12-07T16:33:09;101725.63;;;-8.64;75.38
61109;BME280;46995;55.740;37.402;2023-12-07T16:36:14;101710.28;;;-8.62;75.42
61109;BME280;46995;55.740;37.402;2023-12-07T16:38:55;101721.50;;;-8.59;75.46
61109;BME280;46995;55.740;37.402;2023-12-07T16:41:46;101706.97;;;-8.58;75.37
61109;BME280;46995;55.740;37.402;2023-12-07T16:44:49;101712.03;;;-8.61;75.32
61109;BME280;46995;55.740;37.402;2023-12-07T16:50:12;101698.31;;;-8.63;75.66
61109;BME280;46995;55.740;37.402;2023-12-07T16:52:40;101706.03;;;-8.62;75.17
61109;BME280;46995;55.740;37.402;2023-12-07T16:56:09;101698.44;;;-8.59;75.65
61109;BME280;46995;55.740;37.402;2023-12-07T16:58:38;101702.47;;;-8.67;75.36
61109;BME280;46995;55.740;37.402;2023-12-07T17:01:04;101706.56;;;-8.73;75.38
61109;BME280;46995;55.740;37.402;2023-12-07T17:03:54;101707.44;;;-8.73;75.60
61109;BME280;46995;55.740;37.402;2023-12-07T17:06:20;101712.50;;;-8.76;75.65
61109;BME280;46995;55.740;37.402;2023-12-07T17:08:46;101712.50;;;-8.76;75.36
61109;BME280;46995;55.740;37.402;2023-12-07T17:18:05;101717.59;;;-8.76;75.09
61109;BME280;46995;55.740;37.402;2023-12-07T17:21:01;101715.00;;;-8.77;74.94
61109;BME280;46995;55.740;37.402;2023-12-07T17:23:39;101726.75;;;-8.85;74.92
61109;BME280;46995;55.740;37.402;2023-12-07T17:26:19;101725.88;;;-8.84;75.12
61109;BME280;46995;55.740;37.402;2023-12-07T17:29:06;101726.81;;;-8.82;75.32
61109;BME280;46995;55.740;37.402;2023-12-07T17:31:41;101727.59;;;-8.85;75.09
61109;BME280;46995;55.740;37.402;2023-12-07T17:34:10;101718.22;;;-8.84;75.40
61109;BME280;46995;55.740;37.402;2023-12-07T17:36:36;101721.75;;;-8.81;75.02
61109;BME280;46995;55.740;37.402;2023-12-07T17:39:20;101724.19;;;-8.84;74.24
61109;BME280;46995;55.740;37.402;2023-12-07T17:51:23;101727.63;;;-8.83;74.96
61109;BME280;46995;55.740;37.402;2023-12-07T17:54:19;101720.06;;;-8.80;74.82
61109;BME280;46995;55.740;37.402;2023-12-07T17:57:02;101722.69;;;-8.77;74.80
61109;BME280;46995;55.740;37.402;2023-12-07T18:00:00;101722.56;;;-8.82;74.59
61109;BME280;46995;55.740;37.402;2023-12-07T18:03:12;101731.97;;;-8.81;74.67
61109;BME280;46995;55.740;37.402;2023-12-07T18:11:35;101717.97;;;-8.93;74.97
61109;BME280;46995;55.740;37.402;2023-12-07T18:17:34;101723.88;;;-8.96;75.10
61109;BME280;46995;55.740;37.402;2023-12-07T18:21:26;101721.97;;;-9.03;75.44
61109;BME280;46995;55.740;37.402;2023-12-07T18:24:27;101724.59;;;-9.00;75.12
61109;BME280;46995;55.740;37.402;2023-12-07T18:30:35;101729.03;;;-8.94;75.38
61109;BME280;46995;55.740;37.402;2023-12-07T18:36:28;101728.13;;;-8.96;75.18
61109;BME280;46995;55.740;37.402;2023-12-07T18:45:39;101722.84;;;-9.03;75.32
61109;BME280;46995;55.740;37.402;2023-12-07T18:48:07;101725.34;;;-9.04;75.04
61109;BME280;46995;55.740;37.402;2023-12-07T18:50:40;101733.84;;;-9.05;75.17
61109;BME280;46995;55.740;37.402;2023-12-07T18:53:06;101732.25;;;-9.02;75.32
61109;BME280;46995;55.740;37.402;2023-12-07T18:55:42;101723.78;;;-8.99;75.22
61109;BME280;46995;55.740;37.402;2023-12-07T18:58:08;101729.19;;;-8.90;75.38
61109;BME280;46995;55.740;37.402;2023-12-07T19:00:34;101721.63;;;-8.84;75.31